Time;durP1;ratioP1;P1;durP2;ratioP2;P2;SDS_P1;SDS_P2;PMS_P1;PMS_P2;Temp;Humidity;BMP_temperature;BMP_pressure;BME280_temperature;BME280_humidity;BME280_pressure;Samples;Min_cycle;Max_cycle;Signal;HPM_P1;HPM_P2
2021/12/21 00:02:16;;;;;;;;;;;;;;;20.46;34.61;100736.64;97348;1411;73652;-82
2021/12/21 00:05:08;;;;;;;;;;;;;;;20.46;34.71;100747.17;97364;1409;76374;-83
2021/12/21 00:08:25;;;;;;;;;;;;;;;;;;;;;
2021/12/21 00:11:48;;;;;;;;;;;;;;;20.47;34.61;100750.00;96850;1416;61336;-83
2021/12/21 00:22:33;;;;;;;;;;;;;;;20.47;34.49;100736.77;96803;1417;61549;-83
2021/12/21 00:25:15;;;;;;;;;;;;;;;;;;;;;
2021/12/21 00:28:20;;;;;;;;;;;;;;;20.48;34.50;100749.05;96933;1416;70662;-82
2021/12/21 00:31:35;;;;;;;;;;;;;;;;;;;;;
2021/12/21 00:35:12;;;;;;;;;;;;;;;;;;;;;
2021/12/21 00:40:50;;;;;;;;;;;;;;;20.48;34.45;100758.70;97769;1401;73157;-83
2021/12/21 00:44:04;;;;;;;;;;;;;;;20.48;34.61;100761.73;97508;1410;73615;-83
2021/12/21 00:47:21;;;;;;;;;;;;;;;20.48;34.43;100759.38;98543;1397;61648;-83
2021/12/21 00:50:29;;;;;;;;;;;;;;;20.49;34.40;100764.90;98288;1404;61470;-82
2021/12/21 00:53:28;;;;;;;;;;;;;;;20.48;34.42;100765.98;98307;1404;71514;-82
2021/12/21 00:57:06;;;;;;;;;;;;;;;;;;;;;
2021/12/21 01:00:00;;;;;;;;;;;;;;;20.48;34.42;100768.14;98615;1398;61524;-82
2021/12/21 01:03:47;;;;;;;;;;;;;;;20.48;34.46;100767.25;98725;1397;61269;-82
2021/12/21 01:06:56;;;;;;;;;;;;;;;;;;;;;
2021/12/21 01:10:50;;;;;;;;;;;;;;;20.48;34.42;100761.90;99014;1389;75273;-82
2021/12/21 01:13:49;;;;;;;;;;;;;;;20.48;34.40;100764.75;98989;1392;61456;-84
2021/12/21 01:20:27;;;;;;;;;;;;;;;20.49;34.37;100777.58;99238;1389;72879;-82
2021/12/21 01:23:57;;;;;;;;;;;;;;;20.49;34.37;100777.58;95533;1385;5448381;-82
2021/12/21 01:26:52;;;;;;;;;;;;;;;;;;;;;
2021/12/21 01:43:59;;;;;;;;;;;;;;;;;;;;;
2021/12/21 01:50:41;;;;;;;;;;;;;;;;;;;;;
2021/12/21 01:57:06;;;;;;;;;;;;;;;20.51;34.27;100782.61;97274;1410;61260;-81
2021/12/21 02:00:31;;;;;;;;;;;;;;;;;;;;;
2021/12/21 02:03:58;;;;;;;;;;;;;;;20.51;34.24;100795.11;97409;1405;76482;-84
2021/12/21 02:06:52;;;;;;;;;;;;;;;20.52;34.22;100797.73;97418;1404;61477;-82
2021/12/21 02:10:19;;;;;;;;;;;;;;;20.51;34.22;100798.84;97433;1411;63496;-82
2021/12/21 02:13:32;;;;;;;;;;;;;;;20.51;34.17;100796.52;97417;1412;74455;-82
2021/12/21 02:16:16;;;;;;;;;;;;;;;20.51;34.14;100798.15;97749;1407;73612;-82
2021/12/21 02:20:16;;;;;;;;;;;;;;;20.51;34.17;100799.56;97797;1401;62416;-83
2021/12/21 02:30:25;;;;;;;;;;;;;;;20.52;34.14;100789.45;98394;1399;76009;-83
2021/12/21 02:33:12;;;;;;;;;;;;;;;20.53;34.11;100792.69;97978;1406;61760;-85
2021/12/21 02:36:37;;;;;;;;;;;;;;;;;;;;;
2021/12/21 02:39:25;;;;;;;;;;;;;;;20.53;34.13;100808.21;98562;1394;72894;-82
2021/12/21 02:42:52;;;;;;;;;;;;;;;20.52;34.06;100809.16;98668;1396;73803;-83
2021/12/21 02:45:48;;;;;;;;;;;;;;;;;;;;;
2021/12/21 02:49:18;;;;;;;;;;;;;;;20.52;34.12;100810.04;98372;1403;61292;-82
2021/12/21 02:52:21;;;;;;;;;;;;;;;20.53;34.06;100816.98;98238;1401;71262;-81
2021/12/21 02:58:51;;;;;;;;;;;;;;;20.52;34.08;100822.92;97409;1408;61565;-82
2021/12/21 03:01:59;;;;;;;;;;;;;;;;;;;;;
2021/12/21 03:05:08;;;;;;;;;;;;;;;;;;;;;
2021/12/21 03:08:36;;;;;;;;;;;;;;;20.53;33.99;100836.10;97633;1402;77176;-81
2021/12/21 03:14:58;;;;;;;;;;;;;;;;;;;;;
2021/12/21 03:18:22;;;;;;;;;;;;;;;20.54;34.04;100846.80;98517;1396;71814;-82
2021/12/21 03:21:49;;;;;;;;;;;;;;;20.53;34.04;100844.66;98721;1391;73684;-82
2021/12/21 03:24:44;;;;;;;;;;;;;;;;;;;;;
2021/12/21 03:31:09;;;;;;;;;;;;;;;;;;;;;
2021/12/21 03:34:30;;;;;;;;;;;;;;;;;;;;;
2021/12/21 03:37:47;;;;;;;;;;;;;;;20.53;34.07;100849.49;99153;1383;61259;-82
2021/12/21 03:41:04;;;;;;;;;;;;;;;20.53;33.99;100850.21;99098;1390;60025;-81
2021/12/21 03:47:08;;;;;;;;;;;;;;;;;;;;;
2021/12/21 03:50:34;;;;;;;;;;;;;;;;;;;;;
2021/12/21 03:54:25;;;;;;;;;;;;;;;20.53;33.92;100854.66;98771;1390;62121;-82
2021/12/21 03:57:10;;;;;;;;;;;;;;;20.54;33.95;100865.51;98563;1400;71500;-82
2021/12/21 04:03:50;;;;;;;;;;;;;;;20.54;33.92;100872.49;98603;1393;61604;-82
2021/12/21 04:09:58;;;;;;;;;;;;;;;;;;;;;
2021/12/21 04:12:54;;;;;;;;;;;;;;;20.54;33.89;100879.09;98292;1399;75868;-83
2021/12/21 04:16:01;;;;;;;;;;;;;;;;;;;;;
2021/12/21 04:19:21;;;;;;;;;;;;;;;;;;;;;
2021/12/21 04:22:36;;;;;;;;;;;;;;;;;;;;;
2021/12/21 04:29:22;;;;;;;;;;;;;;;20.55;33.87;100905.15;98597;1393;61285;-82
2021/12/21 04:32:10;;;;;;;;;;;;;;;;;;;;;
2021/12/21 04:34:56;;;;;;;;;;;;;;;;;;;;;
2021/12/21 04:38:30;;;;;;;;;;;;;;;20.46;33.47;100917.73;98595;1396;73595;-83
2021/12/21 04:44:50;;;;;;;;;;;;;;;20.38;33.07;100922.20;98596;1393;61384;-82
2021/12/21 04:48:22;;;;;;;;;;;;;;;20.34;32.94;100927.64;98680;1396;71623;-82
2021/12/21 04:51:38;;;;;;;;;;;;;;;;;;;;;
2021/12/21 04:54:29;;;;;;;;;;;;;;;;;;;;;
2021/12/21 04:58:01;;;;;;;;;;;;;;;20.27;32.46;100931.14;98908;1387;61633;-82
2021/12/21 05:01:12;;;;;;;;;;;;;;;;;;;;;
2021/12/21 05:04:28;;;;;;;;;;;;;;;20.29;32.25;100940.30;98704;1391;74914;-83
2021/12/21 05:07:27;;;;;;;;;;;;;;;;;;;;;
2021/12/21 05:10:46;;;;;;;;;;;;;;;;;;;;;
2021/12/21 05:13:47;;;;;;;;;;;;;;;20.36;31.98;100958.45;98811;1390;73760;-82
2021/12/21 05:16:40;;;;;;;;;;;;;;;20.37;31.91;100961.73;98825;1394;74953;-82
2021/12/21 05:20:07;;;;;;;;;;;;;;;20.39;31.86;100958.43;98833;1393;61350;-82
2021/12/21 05:23:37;;;;;;;;;;;;;;;20.40;31.88;100961.18;98636;1394;61343;-82
2021/12/21 05:27:04;;;;;;;;;;;;;;;20.41;31.82;100972.20;98605;1396;71948;-82
2021/12/21 05:29:52;;;;;;;;;;;;;;;20.41;31.83;100985.29;98905;1387;75867;-82
2021/12/21 05:32:33;;;;;;;;;;;;;;;;;;;;;
2021/12/21 05:35:42;;;;;;;;;;;;;;;20.35;31.64;101001.05;98968;1392;61240;-81
2021/12/21 05:38:16;;;;;;;;;;;;;;;20.30;31.52;101008.19;99244;1380;72235;-82
2021/12/21 05:42:08;;;;;;;;;;;;;;;20.22;31.55;101013.99;99630;1377;73577;-82
2021/12/21 05:44:28;;;;;;;;;;;;;;;20.15;31.57;101012.50;99402;1384;61231;-82
2021/12/21 05:47:15;;;;;;;;;;;;;;;;;;;;;
2021/12/21 05:50:08;;;;;;;;;;;;;;;20.03;31.38;101021.30;99712;1371;73968;-82
2021/12/21 05:52:43;;;;;;;;;;;;;;;19.98;31.32;101029.34;99890;1370;75367;-82
2021/12/21 05:55:55;;;;;;;;;;;;;;;;;;;;;
2021/12/21 05:58:23;;;;;;;;;;;;;;;19.85;31.25;101037.27;99626;1370;61514;-82
2021/12/21 06:00:54;;;;;;;;;;;;;;;19.80;31.22;101042.89;100029;1362;72964;-84
2021/12/21 06:03:30;;;;;;;;;;;;;;;19.77;31.23;101047.93;99945;1362;75625;-82
2021/12/21 06:06:12;;;;;;;;;;;;;;;19.72;31.16;101048.58;99855;1356;61468;-80
2021/12/21 06:08:40;;;;;;;;;;;;;;;19.68;31.06;101054.36;100543;1356;61378;-80
2021/12/21 06:11:09;;;;;;;;;;;;;;;19.64;31.06;101057.44;100671;1355;72722;-81
2021/12/21 06:13:58;;;;;;;;;;;;;;;;;;;;;
2021/12/21 06:22:44;;;;;;;;;;;;;;;19.59;31.07;101062.34;100665;1358;61383;-81
2021/12/21 06:27:45;;;;;;;;;;;;;;;19.69;30.70;101089.13;100847;1357;61232;-79
2021/12/21 06:30:22;;;;;;;;;;;;;;;19.75;30.55;101090.20;100977;1360;61470;-80
2021/12/21 06:32:53;;;;;;;;;;;;;;;19.81;30.55;101093.77;100959;1354;72812;-79
2021/12/21 06:35:24;;;;;;;;;;;;;;;19.86;30.45;101131.84;100960;1357;75090;-81
2021/12/21 06:37:50;;;;;;;;;;;;;;;19.93;30.27;101148.59;100832;1354;61397;-79
2021/12/21 06:40:19;;;;;;;;;;;;;;;19.97;30.44;101167.45;100899;1354;61515;-80
2021/12/21 06:42:50;;;;;;;;;;;;;;;20.02;30.48;101163.79;100692;1353;73043;-80
2021/12/21 06:45:29;;;;;;;;;;;;;;;20.06;30.39;101171.91;100831;1356;75288;-80
2021/12/21 06:51:51;;;;;;;;;;;;;;;20.16;30.52;101175.75;100902;1359;61321;-80
2021/12/21 06:54:15;;;;;;;;;;;;;;;20.19;30.60;101177.19;100831;1360;72867;-81
2021/12/21 06:56:50;;;;;;;;;;;;;;;20.23;30.61;101193.04;100770;1357;76021;-79
2021/12/21 06:59:37;;;;;;;;;;;;;;;20.24;30.59;101200.83;102077;1357;60121;-80
2021/12/21 07:02:03;;;;;;;;;;;;;;;20.23;30.65;101214.48;101232;1356;61484;-80
2021/12/21 07:04:30;;;;;;;;;;;;;;;20.21;30.55;101221.58;100516;1356;61490;-80
2021/12/21 07:06:57;;;;;;;;;;;;;;;20.21;30.64;101224.27;100971;1351;74858;-79
2021/12/21 07:18:13;;;;;;;;;;;;;;;20.24;31.00;101248.52;100891;1354;77068;-81
2021/12/21 07:20:42;;;;;;;;;;;;;;;20.26;30.97;101258.83;101030;1352;60410;-80
2021/12/21 07:23:07;;;;;;;;;;;;;;;20.27;30.92;101260.52;101039;1354;61329;-81
2021/12/21 07:25:47;;;;;;;;;;;;;;;20.28;31.05;101269.94;100955;1357;73899;-81
2021/12/21 07:28:15;;;;;;;;;;;;;;;20.30;31.00;101269.69;100909;1357;75924;-81
2021/12/21 07:30:41;;;;;;;;;;;;;;;20.31;30.81;101274.76;101040;1354;61154;-82
2021/12/21 07:33:19;;;;;;;;;;;;;;;20.32;30.88;101276.88;101117;1355;61399;-82
2021/12/21 07:35:52;;;;;;;;;;;;;;;20.32;31.01;101278.11;101062;1352;72920;-83
2021/12/21 07:38:30;;;;;;;;;;;;;;;20.33;30.99;101281.27;100984;1355;74837;-80
2021/12/21 07:40:56;;;;;;;;;;;;;;;20.34;30.76;101279.92;101835;1351;61355;-80
2021/12/21 07:43:24;;;;;;;;;;;;;;;20.36;30.88;101283.61;101299;1358;61260;-80
2021/12/21 07:45:50;;;;;;;;;;;;;;;20.37;30.88;101285.50;100986;1354;61550;-79
2021/12/21 07:48:16;;;;;;;;;;;;;;;20.38;30.82;101286.09;101067;1354;61336;-83
2021/12/21 07:50:45;;;;;;;;;;;;;;;20.40;30.61;101284.93;101063;1353;61613;-82
2021/12/21 07:53:11;;;;;;;;;;;;;;;20.40;30.70;101286.90;101122;1351;61278;-78
2021/12/21 07:55:37;;;;;;;;;;;;;;;20.40;30.73;101293.50;101027;1348;61460;-79
2021/12/21 07:58:04;;;;;;;;;;;;;;;20.42;30.75;101293.42;101068;1349;61387;-79
2021/12/21 08:00:33;;;;;;;;;;;;;;;20.40;30.78;101297.44;101220;1349;61339;-79
2021/12/21 08:02:59;;;;;;;;;;;;;;;20.39;30.77;101303.63;101073;1351;61510;-82
2021/12/21 08:05:32;;;;;;;;;;;;;;;20.38;30.93;101310.66;101056;1348;74001;-82
2021/12/21 08:08:15;;;;;;;;;;;;;;;20.38;30.97;101313.33;102805;1349;74702;-82
2021/12/21 08:10:44;;;;;;;;;;;;;;;20.38;30.93;101317.98;102843;1351;60590;-82
2021/12/21 08:13:27;;;;;;;;;;;;;;;20.39;30.87;101324.48;102723;1351;60418;-82
2021/12/21 08:15:52;;;;;;;;;;;;;;;20.40;30.93;101328.90;101194;1354;61540;-82
2021/12/21 08:18:18;;;;;;;;;;;;;;;20.42;30.96;101332.38;101164;1351;61425;-82
2021/12/21 08:21:11;;;;;;;;;;;;;;;20.44;30.99;101333.32;100995;1351;61570;-79
2021/12/21 08:23:40;;;;;;;;;;;;;;;20.47;31.16;101341.95;100894;1355;61696;-79
2021/12/21 08:26:21;;;;;;;;;;;;;;;20.50;31.27;101350.17;100820;1357;73908;-81
2021/12/21 08:28:49;;;;;;;;;;;;;;;20.51;31.30;101358.33;100813;1356;76414;-82
2021/12/21 08:31:32;;;;;;;;;;;;;;;20.53;31.35;101359.46;100881;1358;61504;-82
2021/12/21 08:33:58;;;;;;;;;;;;;;;20.53;31.31;101357.97;100883;1360;61330;-82
2021/12/21 08:36:37;;;;;;;;;;;;;;;;;;;;;
2021/12/21 08:39:10;;;;;;;;;;;;;;;20.55;31.55;101355.59;100795;1359;73773;-81
2021/12/21 08:41:43;;;;;;;;;;;;;;;20.55;31.54;101354.70;100918;1354;61502;-81
2021/12/21 08:44:11;;;;;;;;;;;;;;;20.56;31.40;101365.86;100980;1357;60673;-82
2021/12/21 08:46:41;;;;;;;;;;;;;;;20.57;31.39;101364.58;101002;1355;73700;-82
2021/12/21 08:49:38;;;;;;;;;;;;;;;20.57;31.43;101365.79;101146;1358;76288;-81
2021/12/21 08:52:05;;;;;;;;;;;;;;;20.56;31.28;101363.34;100786;1357;61272;-82
2021/12/21 08:54:31;;;;;;;;;;;;;;;20.56;31.52;101365.89;100646;1358;61372;-79
2021/12/21 08:57:08;;;;;;;;;;;;;;;20.53;31.37;101367.46;100797;1362;61374;-79
2021/12/21 08:59:43;;;;;;;;;;;;;;;20.50;31.41;101368.58;100979;1357;74641;-83
2021/12/21 09:02:13;;;;;;;;;;;;;;;20.45;31.36;101378.17;101047;1351;61174;-82
2021/12/21 09:04:40;;;;;;;;;;;;;;;20.41;31.42;101376.79;100770;1358;61720;-81
2021/12/21 09:07:08;;;;;;;;;;;;;;;20.38;31.49;101379.27;100786;1354;72900;-80
2021/12/21 09:10:01;;;;;;;;;;;;;;;;;;;;;
2021/12/21 09:12:27;;;;;;;;;;;;;;;20.37;31.44;101381.29;102083;1356;60015;-81
2021/12/21 09:15:13;;;;;;;;;;;;;;;20.38;31.25;101381.62;100836;1354;61353;-80
2021/12/21 09:17:44;;;;;;;;;;;;;;;20.39;31.31;101377.77;100883;1361;61397;-80
2021/12/21 09:20:13;;;;;;;;;;;;;;;20.40;31.28;101384.85;100878;1359;75080;-82
2021/12/21 09:22:44;;;;;;;;;;;;;;;20.40;31.06;101391.46;100458;1362;293628;-80
2021/12/21 09:25:10;;;;;;;;;;;;;;;20.41;31.10;101393.20;100743;1357;61235;-80
2021/12/21 09:27:36;;;;;;;;;;;;;;;20.43;31.09;101392.57;100720;1353;61558;-80
2021/12/21 09:30:05;;;;;;;;;;;;;;;20.45;31.15;101388.01;100982;1350;74875;-80
2021/12/21 09:32:33;;;;;;;;;;;;;;;20.46;31.16;101388.29;101149;1357;61570;-80
2021/12/21 09:35:09;;;;;;;;;;;;;;;20.48;31.05;101393.02;101204;1350;61429;-81
2021/12/21 09:37:38;;;;;;;;;;;;;;;20.49;31.08;101388.45;101139;1355;61584;-79
2021/12/21 09:40:39;;;;;;;;;;;;;;;20.50;31.03;101388.59;101217;1350;77209;-80
2021/12/21 09:43:08;;;;;;;;;;;;;;;20.49;30.86;101393.45;101262;1356;61461;-81
2021/12/21 09:45:36;;;;;;;;;;;;;;;20.49;30.93;101397.80;100682;1358;62055;-81
2021/12/21 09:48:11;;;;;;;;;;;;;;;20.48;30.85;101399.41;100869;1355;73772;-82
2021/12/21 09:50:36;;;;;;;;;;;;;;;20.49;30.89;101406.50;100813;1360;75717;-82
2021/12/21 09:53:02;;;;;;;;;;;;;;;20.47;30.88;101406.11;100713;1354;61455;-82
2021/12/21 09:55:31;;;;;;;;;;;;;;;20.43;30.97;101403.10;100885;1354;61407;-81
2021/12/21 09:58:06;;;;;;;;;;;;;;;20.41;31.10;101410.17;101001;1350;74747;-82
2021/12/21 10:00:32;;;;;;;;;;;;;;;20.38;31.12;101405.02;100828;1360;74448;-82
2021/12/21 10:03:03;;;;;;;;;;;;;;;20.36;31.06;101411.02;100564;1356;61784;-82
2021/12/21 10:05:28;;;;;;;;;;;;;;;20.35;31.14;101408.27;102370;1354;60437;-81
2021/12/21 10:08:00;;;;;;;;;;;;;;;20.33;31.23;101404.80;101381;1357;61493;-82
2021/12/21 10:10:27;;;;;;;;;;;;;;;20.33;30.99;101397.85;100891;1353;75851;-81
2021/12/21 10:12:59;;;;;;;;;;;;;;;20.33;31.07;101399.45;100936;1354;61349;-82
2021/12/21 10:15:24;;;;;;;;;;;;;;;20.33;30.89;101404.60;101016;1355;61229;-80
2021/12/21 10:18:11;;;;;;;;;;;;;;;20.33;30.88;101404.41;101027;1358;62190;-81
2021/12/21 10:20:48;;;;;;;;;;;;;;;20.33;30.94;101402.27;101218;1351;73649;-82
2021/12/21 10:23:24;;;;;;;;;;;;;;;20.33;30.87;101403.69;101305;1351;61312;-81
2021/12/21 10:26:17;;;;;;;;;;;;;;;20.34;30.80;101403.13;101350;1348;61415;-82
2021/12/21 10:28:44;;;;;;;;;;;;;;;20.34;30.74;101401.52;101305;1347;71749;-80
2021/12/21 10:31:19;;;;;;;;;;;;;;;20.33;30.72;101401.75;101354;1348;61241;-82
2021/12/21 10:34:17;;;;;;;;;;;;;;;20.32;30.63;101403.58;101378;1348;61402;-80
2021/12/21 10:37:23;;;;;;;;;;;;;;;20.32;30.42;101403.39;101344;1348;61303;-82
2021/12/21 10:40:08;;;;;;;;;;;;;;;20.32;30.58;101406.98;101356;1347;73923;-82
2021/12/21 10:42:54;;;;;;;;;;;;;;;20.33;30.34;101407.66;102175;1350;74881;-81
2021/12/21 10:45:35;;;;;;;;;;;;;;;20.35;30.36;101414.01;101395;1348;61336;-82
2021/12/21 10:48:03;;;;;;;;;;;;;;;20.36;30.34;101418.36;101320;1349;61279;-81
2021/12/21 10:50:33;;;;;;;;;;;;;;;20.38;30.22;101424.86;101413;1348;74247;-84
2021/12/21 10:53:02;;;;;;;;;;;;;;;20.37;30.25;101424.38;101057;1348;76126;-80
2021/12/21 10:55:29;;;;;;;;;;;;;;;20.36;30.28;101428.05;100993;1351;61399;-81
2021/12/21 10:58:22;;;;;;;;;;;;;;;20.35;30.23;101430.44;101182;1348;61679;-82
2021/12/21 11:00:53;;;;;;;;;;;;;;;20.29;30.03;101425.91;100754;1355;74023;-82
2021/12/21 11:03:28;;;;;;;;;;;;;;;20.19;29.96;101425.93;100640;1355;76368;-81
2021/12/21 11:05:53;;;;;;;;;;;;;;;20.17;29.96;101432.16;100869;1354;61295;-81
2021/12/21 11:08:25;;;;;;;;;;;;;;;20.17;30.17;101428.23;100820;1354;61556;-81
2021/12/21 11:10:51;;;;;;;;;;;;;;;20.18;30.05;101426.91;100648;1354;73631;-82
2021/12/21 11:13:22;;;;;;;;;;;;;;;20.19;30.01;101421.48;100747;1357;75860;-82
2021/12/21 11:15:55;;;;;;;;;;;;;;;20.19;29.87;101416.83;100672;1353;61397;-82
2021/12/21 11:18:22;;;;;;;;;;;;;;;20.22;29.83;101414.52;100720;1359;61337;-82
2021/12/21 11:20:49;;;;;;;;;;;;;;;20.24;29.85;101412.09;100830;1353;61399;-82
2021/12/21 11:23:16;;;;;;;;;;;;;;;20.25;29.82;101406.66;100731;1354;75590;-80
2021/12/21 11:25:55;;;;;;;;;;;;;;;20.27;29.74;101400.64;100970;1357;61343;-81
2021/12/21 11:28:37;;;;;;;;;;;;;;;20.29;29.73;101395.55;100875;1355;61456;-81
2021/12/21 11:31:03;;;;;;;;;;;;;;;20.31;29.60;101388.65;100956;1354;73100;-81
2021/12/21 11:33:41;;;;;;;;;;;;;;;20.32;29.87;101398.05;100920;1353;61224;-81
2021/12/21 11:39:13;;;;;;;;;;;;;;;20.36;29.59;101400.33;101372;1348;61209;-82
2021/12/21 11:41:53;;;;;;;;;;;;;;;20.37;29.53;101400.24;101367;1348;73960;-82
2021/12/21 11:44:22;;;;;;;;;;;;;;;20.38;29.39;101406.66;101461;1345;75979;-81
2021/12/21 11:47:01;;;;;;;;;;;;;;;20.38;29.46;101413.80;101360;1352;61847;-83
2021/12/21 11:49:39;;;;;;;;;;;;;;;20.39;29.27;101420.17;101263;1347;61507;-82
2021/12/21 11:52:07;;;;;;;;;;;;;;;20.38;29.22;101419.66;102678;1347;72639;-83
2021/12/21 11:54:40;;;;;;;;;;;;;;;20.34;29.16;101413.14;102787;1342;75975;-82
2021/12/21 11:57:06;;;;;;;;;;;;;;;20.31;29.21;101415.81;102783;1349;60057;-82
2021/12/21 11:59:31;;;;;;;;;;;;;;;20.32;29.24;101410.58;102723;1343;60274;-81
2021/12/21 12:02:01;;;;;;;;;;;;;;;20.31;29.31;101410.27;102745;1351;59296;-80
2021/12/21 12:04:27;;;;;;;;;;;;;;;20.32;29.45;101414.70;102833;1352;74696;-82
2021/12/21 12:06:57;;;;;;;;;;;;;;;20.34;29.52;101418.88;101238;1349;63492;-82
2021/12/21 12:09:28;;;;;;;;;;;;;;;20.35;29.58;101420.92;101325;1345;61193;-81
2021/12/21 12:12:13;;;;;;;;;;;;;;;20.36;29.43;101423.89;102783;1352;74034;-82
2021/12/21 12:14:39;;;;;;;;;;;;;;;20.37;29.43;101423.65;102877;1346;75967;-82
2021/12/21 12:17:15;;;;;;;;;;;;;;;20.39;29.56;101425.55;102593;1348;59207;-82
2021/12/21 12:19:43;;;;;;;;;;;;;;;20.41;29.44;101428.09;101579;1352;61081;-83
2021/12/21 12:22:15;;;;;;;;;;;;;;;20.43;29.32;101425.82;101345;1351;73755;-82
2021/12/21 12:24:50;;;;;;;;;;;;;;;20.40;29.33;101426.32;101382;1348;74549;-82
2021/12/21 12:27:27;;;;;;;;;;;;;;;20.40;29.33;101428.16;101474;1342;61183;-81
2021/12/21 12:29:59;;;;;;;;;;;;;;;20.41;29.37;101430.57;101656;1345;60189;-81
2021/12/21 12:32:33;;;;;;;;;;;;;;;20.42;29.46;101439.11;101662;1348;72515;-82
2021/12/21 12:35:19;;;;;;;;;;;;;;;20.40;29.17;101446.73;101478;1350;74810;-81
2021/12/21 12:38:02;;;;;;;;;;;;;;;20.38;29.33;101445.09;101491;1348;61304;-82
2021/12/21 12:40:31;;;;;;;;;;;;;;;20.36;29.21;101442.30;101515;1348;61361;-80
2021/12/21 12:42:57;;;;;;;;;;;;;;;20.36;29.15;101444.84;101398;1348;71659;-82
2021/12/21 12:45:34;;;;;;;;;;;;;;;20.35;29.04;101447.00;101532;1345;61710;-83
2021/12/21 12:47:59;;;;;;;;;;;;;;;20.35;28.97;101451.52;101286;1350;61256;-84
2021/12/21 12:50:39;;;;;;;;;;;;;;;20.34;29.08;101452.27;101166;1350;61435;-82
2021/12/21 12:53:05;;;;;;;;;;;;;;;20.32;29.12;101462.02;101244;1354;72187;-83
2021/12/21 12:55:39;;;;;;;;;;;;;;;20.31;28.99;101463.36;101359;1345;61402;-81
2021/12/21 12:58:05;;;;;;;;;;;;;;;20.30;28.79;101468.04;101199;1348;61155;-80
2021/12/21 13:00:31;;;;;;;;;;;;;;;20.30;28.70;101466.29;102895;1347;59786;-81
2021/12/21 13:03:00;;;;;;;;;;;;;;;20.29;28.79;101467.39;102859;1345;59526;-81
2021/12/21 13:05:35;;;;;;;;;;;;;;;20.29;28.79;101471.55;102892;1348;75959;-81
2021/12/21 13:08:10;;;;;;;;;;;;;;;20.27;28.69;101471.98;102868;1348;60940;-81
2021/12/21 13:10:36;;;;;;;;;;;;;;;20.29;28.81;101480.29;102903;1348;61283;-82
2021/12/21 13:13:02;;;;;;;;;;;;;;;20.34;29.37;101483.42;102931;1348;73799;-82
2021/12/21 13:15:31;;;;;;;;;;;;;;;20.37;29.77;101485.33;102893;1353;59179;-82
2021/12/21 13:18:00;;;;;;;;;;;;;;;20.40;29.97;101485.34;102937;1345;61430;-81
2021/12/21 13:20:26;;;;;;;;;;;;;;;20.41;29.80;101485.30;102937;1348;60464;-81
2021/12/21 13:22:52;;;;;;;;;;;;;;;20.41;29.71;101488.14;101627;1345;61403;-79
2021/12/21 13:25:27;;;;;;;;;;;;;;;20.42;29.72;101485.76;101495;1349;61367;-81
2021/12/21 13:28:11;;;;;;;;;;;;;;;;;;;;;
2021/12/21 13:30:39;;;;;;;;;;;;;;;20.42;29.38;101496.14;101527;1349;61277;-80
2021/12/21 13:33:27;;;;;;;;;;;;;;;20.42;29.41;101494.52;101594;1354;73846;-81
2021/12/21 13:36:15;;;;;;;;;;;;;;;20.43;29.35;101495.55;101559;1349;74759;-80
2021/12/21 13:38:56;;;;;;;;;;;;;;;20.43;29.20;101499.85;101573;1352;61491;-81
2021/12/21 13:42:01;;;;;;;;;;;;;;;20.43;29.09;101506.63;101733;1345;61206;-82
2021/12/21 13:44:50;;;;;;;;;;;;;;;;;;;;;
2021/12/21 13:47:52;;;;;;;;;;;;;;;20.41;28.79;101519.81;101704;1348;74682;-81
2021/12/21 13:50:41;;;;;;;;;;;;;;;20.39;28.63;101525.98;101538;1348;61206;-81
2021/12/21 13:53:39;;;;;;;;;;;;;;;20.39;28.64;101528.69;101440;1347;61282;-81
2021/12/21 13:56:45;;;;;;;;;;;;;;;20.38;28.55;101534.64;101755;1348;71437;-81
2021/12/21 13:59:16;;;;;;;;;;;;;;;20.36;28.34;101544.06;101506;1345;74859;-81
2021/12/21 14:02:10;;;;;;;;;;;;;;;20.33;28.39;101549.59;101494;1346;61346;-81
2021/12/21 14:04:50;;;;;;;;;;;;;;;20.30;28.32;101547.95;100940;1354;61272;-81
2021/12/21 14:07:26;;;;;;;;;;;;;;;20.30;28.30;101551.72;100942;1357;73948;-82
2021/12/21 14:10:07;;;;;;;;;;;;;;;20.31;28.08;101560.59;101112;1358;74876;-81
2021/12/21 14:12:51;;;;;;;;;;;;;;;;;;;;;
2021/12/21 14:15:33;;;;;;;;;;;;;;;20.33;28.06;101556.56;101166;1358;61368;-81
2021/12/21 14:18:23;;;;;;;;;;;;;;;20.34;27.88;101559.20;101151;1354;74079;-81
2021/12/21 14:20:59;;;;;;;;;;;;;;;20.35;27.93;101561.64;101137;1357;76021;-81
2021/12/21 14:23:28;;;;;;;;;;;;;;;20.37;27.88;101564.40;101200;1357;61285;-81
2021/12/21 14:26:23;;;;;;;;;;;;;;;20.38;27.83;101565.23;101522;1361;61798;-82
2021/12/21 14:29:12;;;;;;;;;;;;;;;20.40;27.82;101567.08;101293;1354;72489;-82
2021/12/21 14:32:13;;;;;;;;;;;;;;;;;;;;;
2021/12/21 14:35:07;;;;;;;;;;;;;;;;;;;;;
2021/12/21 14:38:16;;;;;;;;;;;;;;;;;;;;;
2021/12/21 14:41:43;;;;;;;;;;;;;;;20.43;27.63;101551.51;100954;1360;72845;-82
2021/12/21 14:44:48;;;;;;;;;;;;;;;20.44;27.72;101558.42;100215;1369;73605;-82
2021/12/21 14:47:30;;;;;;;;;;;;;;;20.45;27.66;101561.76;100027;1375;61241;-81
2021/12/21 14:50:51;;;;;;;;;;;;;;;;;;;;;
2021/12/21 14:53:41;;;;;;;;;;;;;;;;;;;;;
2021/12/21 14:57:00;;;;;;;;;;;;;;;;;;;;;
2021/12/21 14:59:58;;;;;;;;;;;;;;;20.49;27.71;101590.34;99312;1384;61737;-81
2021/12/21 15:03:10;;;;;;;;;;;;;;;20.50;27.71;101592.78;99280;1380;61448;-82
2021/12/21 15:05:55;;;;;;;;;;;;;;;20.51;27.75;101592.04;99034;1384;72985;-81
2021/12/21 15:09:01;;;;;;;;;;;;;;;20.52;27.86;101597.67;98983;1383;75288;-81
2021/12/21 15:12:08;;;;;;;;;;;;;;;20.53;27.82;101599.24;98671;1394;59772;-82
2021/12/21 15:18:13;;;;;;;;;;;;;;;;;;;;;
2021/12/21 15:21:02;;;;;;;;;;;;;;;20.54;27.94;101597.00;98295;1395;74897;-82
2021/12/21 15:24:00;;;;;;;;;;;;;;;;;;;;;
2021/12/21 15:27:24;;;;;;;;;;;;;;;20.56;28.04;101600.31;98652;1390;61225;-81
2021/12/21 15:29:53;;;;;;;;;;;;;;;20.56;27.95;101606.56;98676;1394;72976;-82
2021/12/21 15:32:40;;;;;;;;;;;;;;;20.56;28.06;101611.21;99057;1384;77041;-82
2021/12/21 15:35:48;;;;;;;;;;;;;;;20.56;28.06;101617.29;98992;1389;61325;-82
2021/12/21 15:39:00;;;;;;;;;;;;;;;20.57;28.17;101625.10;98818;1387;61420;-83
2021/12/21 15:42:02;;;;;;;;;;;;;;;20.56;28.13;101626.21;98730;1394;72820;-83
2021/12/21 15:44:43;;;;;;;;;;;;;;;20.57;28.15;101634.06;99267;1381;74721;-81
2021/12/21 15:47:33;;;;;;;;;;;;;;;20.57;28.25;101635.83;99218;1381;61719;-82
2021/12/21 15:50:35;;;;;;;;;;;;;;;;;;;;;
2021/12/21 15:53:44;;;;;;;;;;;;;;;20.57;28.31;101644.73;99329;1381;71710;-82
2021/12/21 15:57:00;;;;;;;;;;;;;;;20.57;28.36;101647.61;100035;1376;74877;-82
2021/12/21 16:00:09;;;;;;;;;;;;;;;20.58;28.32;101656.35;99607;1380;61644;-82
2021/12/21 16:03:41;;;;;;;;;;;;;;;20.58;28.37;101659.75;99710;1372;61253;-81
2021/12/21 16:06:41;;;;;;;;;;;;;;;;;;;;;
2021/12/21 16:09:10;;;;;;;;;;;;;;;20.59;28.44;101661.67;99516;1381;74811;-83
2021/12/21 16:12:54;;;;;;;;;;;;;;;20.59;28.44;101653.10;99494;1381;61357;-82
2021/12/21 16:15:54;;;;;;;;;;;;;;;;;;;;;
2021/12/21 16:18:42;;;;;;;;;;;;;;;20.58;28.51;101656.87;100379;1366;73276;-82
2021/12/21 16:21:58;;;;;;;;;;;;;;;;;;;;;
2021/12/21 16:25:03;;;;;;;;;;;;;;;;;;;;;
2021/12/21 16:28:18;;;;;;;;;;;;;;;;;;;;;
2021/12/21 16:31:37;;;;;;;;;;;;;;;;;;;;;
2021/12/21 16:34:29;;;;;;;;;;;;;;;;;;;;;
2021/12/21 16:37:30;;;;;;;;;;;;;;;20.59;28.60;101659.68;99961;1371;61397;-82
2021/12/21 16:40:40;;;;;;;;;;;;;;;20.59;28.63;101658.26;99972;1374;61301;-82
2021/12/21 16:43:24;;;;;;;;;;;;;;;;;;;;;
2021/12/21 16:46:33;;;;;;;;;;;;;;;20.60;28.61;101675.20;100134;1371;73661;-81
2021/12/21 16:49:55;;;;;;;;;;;;;;;20.60;28.66;101681.10;100087;1372;61375;-81
2021/12/21 16:52:24;;;;;;;;;;;;;;;20.60;28.68;101680.56;100126;1372;61219;-81
2021/12/21 16:55:39;;;;;;;;;;;;;;;20.60;28.71;101679.50;100105;1371;72738;-82
2021/12/21 16:58:27;;;;;;;;;;;;;;;20.60;28.74;101687.73;99787;1375;74623;-81
2021/12/21 17:01:25;;;;;;;;;;;;;;;20.59;28.75;101700.46;99608;1378;61618;-82
2021/12/21 17:04:13;;;;;;;;;;;;;;;;;;;;;
2021/12/21 17:07:18;;;;;;;;;;;;;;;;;;;;;
2021/12/21 17:10:34;;;;;;;;;;;;;;;;;;;;;
2021/12/21 17:13:28;;;;;;;;;;;;;;;20.60;28.80;101705.61;100375;1366;61417;-81